Regan, North Dakota
Current Conditions -  °F | °C
As of 12:52 PM on Friday 31 Oct 2014 (Local Time) from KBIS Reporting Station
Clear Clear  
Wind Chill: 25°   Ceiling: Unl
Heat Index: 35°   Visibility: 10mi
Dew Point: 21°   Wind: 17mph
Humidity: 57%   Direction: 170°S
Pressure: 30.43"   Gusts: 28mph
Location:  47.16°N, 100.53°W
Report Text: KBIS 311752Z 17015G24KT 10SM CLR 02/M06 A3043 RMK AO2 SLP328 T00171061 10017 21117 58030
Loading
Personal Weather Stations






























Interactive Weather Map
Tropical Storm Tracking
New forecast layout! Learn more

10-Day Weather Forecast

Advertisements
Track Severe Weather on mobile